Time;durP1;ratioP1;P1;durP2;ratioP2;P2;SDS_P1;SDS_P2;PMS_P1;PMS_P2;Temp;Humidity;BMP_temperature;BMP_pressure;BME280_temperature;BME280_humidity;BME280_pressure;Samples;Min_cycle;Max_cycle;Signal;HPM_P1;HPM_P2
2024/02/01 00:01:29;;;;;;;5.87;4.87;;;;;;;8.25;62.31;96147.19;4919621;29;20202;-84
2024/02/01 00:03:55;;;;;;;8.27;4.60;;;;;;;8.27;62.53;96158.09;4918919;29;20300;-84
2024/02/01 00:06:22;;;;;;;6.90;4.90;;;;;;;8.27;62.54;96141.91;4920121;29;20210;-83
2024/02/01 00:08:48;;;;;;;6.63;5.27;;;;;;;8.30;62.51;96149.28;4919979;29;20210;-83
2024/02/01 00:11:14;;;;;;;5.30;4.73;;;;;;;8.28;62.99;96154.56;4920176;29;20218;-85
2024/02/01 00:13:41;;;;;;;5.30;4.77;;;;;;;8.28;63.00;96166.59;4920305;29;20213;-84
2024/02/01 00:16:07;;;;;;;6.83;5.40;;;;;;;8.30;63.31;96178.31;4918144;29;20229;-84
2024/02/01 00:18:35;;;;;;;6.67;4.90;;;;;;;8.15;63.93;96212.34;4919764;29;20228;-84
2024/02/01 00:21:01;;;;;;;6.30;5.17;;;;;;;8.19;64.11;96229.84;4919451;29;20221;-85
2024/02/01 00:23:28;;;;;;;6.60;5.27;;;;;;;8.19;64.32;96231.63;4919073;29;20266;-84
2024/02/01 00:25:54;;;;;;;5.70;4.97;;;;;;;8.22;64.60;96233.91;4919311;29;20300;-85
2024/02/01 00:28:20;;;;;;;7.23;5.57;;;;;;;8.20;64.49;96236.59;4919055;29;20202;-84
2024/02/01 00:30:47;;;;;;;7.20;5.90;;;;;;;8.20;64.61;96253.75;4917264;29;20234;-84
2024/02/01 00:33:13;;;;;;;6.07;5.33;;;;;;;8.21;65.07;96263.06;4918320;29;20624;-85
2024/02/01 00:35:41;;;;;;;6.83;5.27;;;;;;;8.24;64.80;96267.91;4919320;29;20206;-84
2024/02/01 00:38:07;;;;;;;6.57;5.63;;;;;;;8.21;65.55;96286.16;4918929;29;20214;-84
2024/02/01 00:40:34;;;;;;;7.00;5.57;;;;;;;8.25;65.77;96298.56;4918845;29;20262;-84
2024/02/01 00:43:00;;;;;;;7.60;6.07;;;;;;;8.29;65.84;96320.38;4919634;29;20205;-85
2024/02/01 00:45:26;;;;;;;8.03;5.63;;;;;;;8.27;66.26;96324.84;4920022;29;20206;-85
2024/02/01 00:47:53;;;;;;;7.87;5.50;;;;;;;8.23;66.81;96333.00;4918484;29;20210;-84
2024/02/01 00:50:19;;;;;;;6.47;5.70;;;;;;;8.26;66.79;96343.78;4918931;29;20278;-84
2024/02/01 00:52:47;;;;;;;9.73;5.97;;;;;;;8.28;66.68;96341.03;4919818;29;20209;-85
2024/02/01 00:55:14;;;;;;;7.97;6.30;;;;;;;8.19;68.42;96391.47;4912582;29;20274;-84
2024/02/01 00:57:40;;;;;;;7.37;6.07;;;;;;;8.20;68.04;96400.78;4899725;29;20673;-85
2024/02/01 01:00:08;;;;;;;6.53;5.93;;;;;;;8.24;68.25;96394.41;4901087;29;20235;-84
2024/02/01 01:02:34;;;;;;;7.90;5.87;;;;;;;8.29;67.47;96387.06;4900001;29;20288;-85
2024/02/01 01:05:03;;;;;;;7.67;6.10;;;;;;;8.31;67.80;96379.25;4916720;29;20210;-84
2024/02/01 01:07:29;;;;;;;6.80;5.93;;;;;;;8.37;67.83;96378.72;4919415;29;20234;-84
2024/02/01 01:09:57;;;;;;;6.60;5.80;;;;;;;8.38;67.77;96376.97;4917645;29;20497;-84
2024/02/01 01:12:23;;;;;;;7.57;6.00;;;;;;;8.37;67.59;96371.00;4918946;29;20275;-84
2024/02/01 01:14:52;;;;;;;7.60;6.40;;;;;;;8.39;67.68;96376.00;4919247;29;20210;-85
2024/02/01 01:17:18;;;;;;;6.93;6.07;;;;;;;8.37;68.16;96381.28;4918856;29;20210;-84
2024/02/01 01:19:45;;;;;;;10.37;6.10;;;;;;;8.39;68.09;96376.81;4917662;29;20285;-84
2024/02/01 01:22:11;;;;;;;8.67;6.60;;;;;;;8.39;68.22;96366.56;4919413;29;20210;-84
2024/02/01 01:24:38;;;;;;;7.53;6.73;;;;;;;8.39;68.18;96376.00;4918726;29;20217;-84
2024/02/01 01:27:06;;;;;;;8.93;6.40;;;;;;;8.36;68.45;96387.34;4918674;29;20222;-85
2024/02/01 01:29:32;;;;;;;7.23;6.43;;;;;;;8.36;68.61;96387.34;4918541;29;20265;-84
2024/02/01 01:31:59;;;;;;;7.23;6.53;;;;;;;8.36;68.55;96399.38;4918335;29;20249;-85
2024/02/01 01:34:25;;;;;;;8.50;6.80;;;;;;;8.25;69.21;96411.44;4917878;29;20238;-85
2024/02/01 01:36:52;;;;;;;9.83;7.50;;;;;;;8.28;69.89;96425.69;4916489;29;20242;-84
2024/02/01 01:39:19;;;;;;;8.37;7.47;;;;;;;8.27;70.65;96447.22;4918641;29;20225;-85
2024/02/01 01:41:46;;;;;;;10.57;7.70;;;;;;;8.20;71.88;96487.19;4918495;29;20206;-84
2024/02/01 01:44:14;;;;;;;10.17;8.50;;;;;;;8.15;72.89;96502.16;4917709;29;20666;-84
2024/02/01 01:46:40;;;;;;;10.23;8.43;;;;;;;8.23;73.19;96517.69;4918271;29;20202;-84
2024/02/01 01:49:08;;;;;;;10.47;9.07;;;;;;;8.21;74.02;96530.66;4918116;29;20222;-83
2024/02/01 01:51:36;;;;;;;13.20;10.13;;;;;;;8.22;74.50;96534.84;4917598;29;20225;-85
2024/02/01 01:54:05;;;;;;;10.90;9.13;;;;;;;8.16;75.65;96567.91;4917684;29;20776;-84
2024/02/01 01:56:32;;;;;;;12.87;9.73;;;;;;;8.25;75.59;96567.13;4918374;29;20270;-84
2024/02/01 01:58:59;;;;;;;12.00;9.67;;;;;;;8.30;75.33;96554.66;4918445;29;20213;-85
2024/02/01 02:01:28;;;;;;;10.87;9.23;;;;;;;8.26;76.33;96561.84;4917805;29;20202;-85
2024/02/01 02:03:59;;;;;;;13.10;10.30;;;;;;;8.33;76.09;96572.38;4917561;29;20221;-83
2024/02/01 02:06:25;;;;;;;11.83;9.80;;;;;;;8.34;76.47;96579.13;4918184;29;20289;-84
2024/02/01 02:08:51;;;;;;;13.37;10.03;;;;;;;8.40;76.24;96568.31;4915607;29;20260;-84
2024/02/01 02:11:18;;;;;;;13.47;9.97;;;;;;;8.47;75.76;96556.53;4917694;29;20228;-85
2024/02/01 02:13:47;;;;;;;11.67;10.23;;;;;;;8.48;76.30;96553.03;4917755;29;20261;-83
2024/02/01 02:16:16;;;;;;;14.53;10.80;;;;;;;8.45;76.94;96576.41;4917098;29;20198;-84
2024/02/01 02:18:44;;;;;;;11.50;10.30;;;;;;;8.48;77.45;96575.31;4917234;29;20292;-84
2024/02/01 02:21:15;;;;;;;15.60;10.87;;;;;;;8.42;78.11;96596.41;4917701;29;20205;-84
2024/02/01 02:23:42;;;;;;;12.13;10.50;;;;;;;8.46;78.59;96600.31;4915561;29;20628;-83
2024/02/01 02:26:09;;;;;;;16.47;10.50;;;;;;;8.48;78.90;96604.34;4916495;29;20468;-84
2024/02/01 02:28:38;;;;;;;12.67;9.90;;;;;;;8.51;79.14;96604.06;4918270;29;20859;-84
2024/02/01 02:31:05;;;;;;;13.23;10.17;;;;;;;8.51;79.16;96614.34;4917012;29;20320;-84
2024/02/01 02:33:31;;;;;;;15.10;10.53;;;;;;;8.61;78.81;96602.31;4916957;29;20839;-85
2024/02/01 02:35:58;;;;;;;13.43;9.90;;;;;;;8.60;79.39;96618.66;4917225;29;20273;-84
2024/02/01 02:38:24;;;;;;;13.50;9.93;;;;;;;8.58;80.00;96627.44;4917609;29;20648;-84
2024/02/01 02:40:52;;;;;;;13.97;9.73;;;;;;;8.61;80.39;96640.00;4914931;29;20222;-85
2024/02/01 02:43:18;;;;;;;12.83;9.90;;;;;;;8.68;80.14;96629.97;4917440;29;20218;-84
2024/02/01 02:45:45;;;;;;;13.87;9.70;;;;;;;8.73;80.30;96643.22;4919307;29;20241;-84
2024/02/01 02:48:11;;;;;;;12.40;8.97;;;;;;;8.77;80.62;96644.56;4911648;29;20203;-84
2024/02/01 02:50:38;;;;;;;9.47;8.53;;;;;;;8.74;81.54;96649.97;4902048;29;20233;-85
2024/02/01 02:53:04;;;;;;;10.33;8.80;;;;;;;8.78;81.13;96654.69;4901245;29;20234;-84
2024/02/01 02:55:30;;;;;;;9.40;8.40;;;;;;;8.78;82.10;96664.16;4903924;29;20211;-84
2024/02/01 02:57:58;;;;;;;10.33;8.70;;;;;;;8.82;81.91;96670.66;4925661;29;20273;-83
2024/02/01 03:00:25;;;;;;;13.10;9.10;;;;;;;8.83;82.17;96664.56;4926345;29;20232;-84
2024/02/01 03:02:51;;;;;;;13.23;8.57;;;;;;;8.89;81.81;96656.28;4927011;29;20213;-84
2024/02/01 03:05:18;;;;;;;10.87;7.87;;;;;;;8.93;81.88;96655.06;4926658;29;20206;-85
2024/02/01 03:07:44;;;;;;;9.37;8.00;;;;;;;8.93;82.13;96652.50;4932450;29;20200;-84
2024/02/01 03:10:11;;;;;;;11.90;8.37;;;;;;;8.94;82.49;96656.69;4937504;29;20473;-84
2024/02/01 03:12:40;;;;;;;9.30;7.80;;;;;;;8.90;82.42;96660.47;4934179;29;20226;-85
2024/02/01 03:15:09;;;;;;;10.43;7.60;;;;;;;8.92;82.70;96661.97;4927630;29;20210;-85
2024/02/01 03:17:37;;;;;;;8.50;7.23;;;;;;;8.93;82.98;96668.72;4928631;29;20258;-84
2024/02/01 03:20:17;;;;;;;9.60;7.50;;;;;;;8.94;83.35;96675.47;4924990;29;20708;-84
2024/02/01 03:22:44;;;;;;;8.70;7.73;;;;;;;8.92;83.61;96677.38;4924115;29;20202;-84
2024/02/01 03:25:10;;;;;;;8.43;6.77;;;;;;;8.90;84.16;96688.72;4924073;29;20233;-85
2024/02/01 03:27:42;;;;;;;7.60;6.47;;;;;;;8.90;84.31;96694.66;4923751;29;20206;-85
2024/02/01 03:30:11;;;;;;;8.83;6.60;;;;;;;8.97;84.21;96693.19;4921305;29;20240;-84
2024/02/01 03:32:38;;;;;;;7.27;6.43;;;;;;;8.94;84.69;96693.44;4923282;29;20249;-84
2024/02/01 03:35:05;;;;;;;8.33;5.73;;;;;;;8.91;85.05;96698.06;4922993;29;20198;-84
2024/02/01 03:37:33;;;;;;;9.27;6.27;;;;;;;9.04;84.44;96690.88;4923117;29;20217;-84
2024/02/01 03:40:00;;;;;;;10.33;6.13;;;;;;;9.00;84.67;96684.38;4922869;29;20258;-84
2024/02/01 03:42:27;;;;;;;7.27;5.40;;;;;;;9.06;84.66;96688.13;4923165;29;20634;-84
2024/02/01 03:44:53;;;;;;;8.27;5.70;;;;;;;9.11;84.09;96675.69;4921253;29;20207;-85
2024/02/01 03:47:21;;;;;;;7.17;5.53;;;;;;;9.08;84.09;96674.19;4928751;29;20250;-85
2024/02/01 03:49:47;;;;;;;7.80;5.00;;;;;;;9.19;83.17;96660.38;4922015;29;20226;-84
2024/02/01 03:52:20;;;;;;;7.67;5.33;;;;;;;9.11;83.76;96665.41;4923038;29;20235;-84
2024/02/01 03:54:46;;;;;;;8.13;5.10;;;;;;;9.10;84.15;96664.59;4923266;29;20206;-85
2024/02/01 03:57:14;;;;;;;7.60;4.93;;;;;;;9.16;83.76;96670.94;4921436;29;20198;-84
2024/02/01 03:59:43;;;;;;;9.47;4.77;;;;;;;9.20;83.50;96656.88;4922743;29;20317;-83
2024/02/01 04:02:14;;;;;;;7.13;5.07;;;;;;;9.24;82.89;96656.44;4920023;29;20209;-84
2024/02/01 04:04:45;;;;;;;8.63;4.97;;;;;;;9.26;82.66;96631.41;4922833;29;20575;-84
2024/02/01 04:07:16;;;;;;;7.23;4.60;;;;;;;9.22;82.79;96650.66;4922086;29;20217;-84
2024/02/01 04:09:42;;;;;;;9.60;5.00;;;;;;;9.23;82.93;96654.84;4921876;29;20250;-85
2024/02/01 04:12:09;;;;;;;7.00;4.50;;;;;;;9.28;82.54;96649.25;4922358;29;20229;-85
2024/02/01 04:14:35;;;;;;;6.83;4.57;;;;;;;9.29;82.69;96651.69;4922394;29;20217;-84
2024/02/01 04:17:02;;;;;;;6.63;4.23;;;;;;;9.24;82.83;96661.56;4920280;29;20203;-85
2024/02/01 04:19:28;;;;;;;6.37;4.53;;;;;;;9.18;83.08;96662.16;4922277;29;20257;-85
2024/02/01 04:21:56;;;;;;;6.53;4.47;;;;;;;9.22;83.15;96665.25;4922240;29;20557;-85
2024/02/01 04:24:25;;;;;;;8.20;4.77;;;;;;;9.28;82.56;96651.81;4921825;29;20210;-85
2024/02/01 04:26:52;;;;;;;5.93;3.97;;;;;;;9.34;82.01;96633.25;4921910;29;20210;-85
2024/02/01 04:29:18;;;;;;;9.40;4.63;;;;;;;9.33;82.04;96639.34;4921805;29;20226;-85
2024/02/01 04:31:44;;;;;;;7.57;4.30;;;;;;;9.31;82.15;96643.81;4921856;29;20225;-85
2024/02/01 04:34:11;;;;;;;7.80;4.60;;;;;;;9.35;82.01;96640.03;4919229;29;20202;-84
2024/02/01 04:36:37;;;;;;;4.30;3.80;;;;;;;9.34;81.94;96640.97;4921565;29;20589;-84
2024/02/01 04:39:08;;;;;;;6.97;4.43;;;;;;;9.34;81.99;96640.97;4921033;29;20213;-84
2024/02/01 04:41:35;;;;;;;8.93;4.70;;;;;;;9.30;82.48;96662.75;4921872;29;20277;-84
2024/02/01 04:44:01;;;;;;;7.57;4.50;;;;;;;9.29;82.60;96663.72;4927608;29;20280;-83
2024/02/01 04:46:27;;;;;;;6.50;4.50;;;;;;;9.31;82.53;96657.50;4920945;29;20620;-85
2024/02/01 04:48:54;;;;;;;8.73;4.57;;;;;;;9.31;82.59;96660.06;4919011;29;20215;-85
2024/02/01 04:51:20;;;;;;;7.97;4.83;;;;;;;9.39;81.67;96640.56;4919204;29;20218;-85
2024/02/01 04:53:47;;;;;;;9.23;5.17;;;;;;;9.37;82.04;96647.59;4920862;29;20210;-84
2024/02/01 04:56:14;;;;;;;9.70;5.10;;;;;;;9.42;81.50;96641.09;4920578;29;20337;-85
2024/02/01 04:58:53;;;;;;;8.57;5.00;;;;;;;9.49;80.99;96638.72;4920547;29;20691;-85
2024/02/01 05:01:19;;;;;;;7.43;5.03;;;;;;;9.39;81.21;96641.38;4920811;29;20206;-85
2024/02/01 05:03:46;;;;;;;6.87;4.97;;;;;;;9.40;81.25;96632.72;4921622;29;20207;-85
2024/02/01 05:06:12;;;;;;;7.13;4.87;;;;;;;9.33;81.62;96637.59;4919469;29;20262;-85
2024/02/01 05:08:39;;;;;;;6.73;4.77;;;;;;;9.37;81.46;96627.84;4921335;29;20214;-84
2024/02/01 05:11:05;;;;;;;6.30;4.73;;;;;;;9.34;81.46;96635.84;4921163;29;20225;-84
2024/02/01 05:13:34;;;;;;;8.13;4.83;;;;;;;9.38;81.20;96632.03;4921528;29;20230;-84
2024/02/01 05:16:02;;;;;;;7.63;5.30;;;;;;;9.31;81.46;96618.94;4921463;29;20210;-85
2024/02/01 05:18:28;;;;;;;7.90;4.57;;;;;;;9.28;81.31;96614.06;4921418;29;20217;-84
2024/02/01 05:20:55;;;;;;;8.53;4.50;;;;;;;9.33;81.06;96614.47;4919781;29;20237;-85
2024/02/01 05:23:21;;;;;;;5.23;4.73;;;;;;;9.32;80.99;96600.00;4920393;29;20217;-85
2024/02/01 05:25:49;;;;;;;7.17;5.10;;;;;;;9.33;81.08;96599.03;4920338;29;20203;-84
2024/02/01 05:28:17;;;;;;;9.00;4.80;;;;;;;9.32;81.27;96604.31;4919907;29;20273;-84
2024/02/01 05:30:45;;;;;;;8.33;4.80;;;;;;;9.29;81.26;96602.03;4919222;29;20238;-85
2024/02/01 05:33:11;;;;;;;6.40;4.27;;;;;;;9.38;80.88;96597.81;4918686;29;20256;-84
2024/02/01 05:35:37;;;;;;;5.27;4.43;;;;;;;9.43;80.39;96578.41;4919502;29;20210;-84
2024/02/01 05:38:06;;;;;;;8.63;4.80;;;;;;;9.41;80.29;96579.53;4921982;29;20330;-84
2024/02/01 05:40:33;;;;;;;8.53;4.73;;;;;;;9.46;79.98;96580.69;4919976;29;20234;-83
2024/02/01 05:42:59;;;;;;;9.30;4.40;;;;;;;9.44;80.03;96584.38;4920534;29;20689;-84
2024/02/01 05:45:27;;;;;;;6.80;4.47;;;;;;;9.45;80.19;96573.94;4920465;29;20206;-83
2024/02/01 05:47:55;;;;;;;6.93;4.20;;;;;;;9.47;79.68;96558.38;4919756;29;20210;-85
2024/02/01 05:50:22;;;;;;;5.83;4.10;;;;;;;9.49;79.54;96557.28;4920598;29;20301;-85
2024/02/01 05:52:48;;;;;;;5.87;4.47;;;;;;;9.55;78.98;96558.47;4919789;29;20226;-84
2024/02/01 05:55:15;;;;;;;7.83;4.73;;;;;;;9.54;79.13;96549.13;4919216;29;20254;-83
2024/02/01 05:57:41;;;;;;;7.60;4.40;;;;;;;9.56;79.02;96560.91;4927166;29;20230;-84
2024/02/01 06:00:10;;;;;;;6.17;4.17;;;;;;;9.61;78.34;96548.41;4942423;29;20225;-83
2024/02/01 06:02:36;;;;;;;5.80;4.13;;;;;;;9.56;78.46;96548.03;4943081;29;20209;-85
2024/02/01 06:05:05;;;;;;;6.30;4.47;;;;;;;9.54;78.73;96544.81;4940469;29;20212;-83
2024/02/01 06:07:31;;;;;;;6.40;4.40;;;;;;;9.51;78.93;96549.41;4927285;29;20210;-85
2024/02/01 06:09:59;;;;;;;6.33;4.70;;;;;;;9.50;78.80;96550.38;4921064;29;20237;-84
2024/02/01 06:12:27;;;;;;;5.73;4.33;;;;;;;9.51;79.14;96544.28;4919907;29;20222;-84
2024/02/01 06:14:53;;;;;;;5.83;4.03;;;;;;;9.55;78.90;96543.03;4920442;29;20202;-84
2024/02/01 06:17:22;;;;;;;7.83;4.47;;;;;;;9.53;78.74;96552.66;4920633;29;20214;-84
2024/02/01 06:19:48;;;;;;;6.87;4.33;;;;;;;9.50;79.17;96560.66;4923169;29;20226;-85
2024/02/01 06:22:16;;;;;;;8.17;4.17;;;;;;;9.53;78.85;96557.81;4926962;29;20205;-85
2024/02/01 06:24:42;;;;;;;5.93;4.43;;;;;;;9.54;78.91;96562.81;4927810;29;20786;-84
2024/02/01 06:27:09;;;;;;;5.90;4.63;;;;;;;9.55;78.79;96555.91;4926936;29;20279;-85
2024/02/01 06:29:37;;;;;;;6.17;4.10;;;;;;;9.54;78.64;96554.28;4926686;29;20916;-85
2024/02/01 06:32:12;;;;;;;7.00;5.03;;;;;;;9.49;79.23;96564.19;4925776;29;20209;-84
2024/02/01 06:34:39;;;;;;;7.47;5.23;;;;;;;9.49;79.32;96556.47;4927403;29;20472;-85
2024/02/01 06:37:08;;;;;;;6.13;4.43;;;;;;;9.47;79.34;96573.78;4927321;29;20220;-84
2024/02/01 06:39:48;;;;;;;5.27;4.50;;;;;;;9.52;79.21;96559.56;4925755;29;20502;-84
2024/02/01 06:42:24;;;;;;;7.53;4.70;;;;;;;9.55;79.00;96559.28;4926720;29;20209;-85
2024/02/01 06:45:05;;;;;;;13.43;9.87;;;;;;;9.56;79.14;96557.50;4927642;29;20221;-85
2024/02/01 06:47:38;;;;;;;7.60;4.57;;;;;;;9.52;78.95;96548.47;4927491;29;20648;-84
2024/02/01 06:50:15;;;;;;;6.77;4.50;;;;;;;9.53;79.05;96543.19;4925479;29;20226;-84
2024/02/01 06:52:43;;;;;;;6.03;4.90;;;;;;;9.47;79.40;96542.94;4926705;29;20235;-85
2024/02/01 06:55:36;;;;;;;8.63;4.60;;;;;;;9.48;79.49;96535.09;4926712;29;20249;-85
2024/02/01 06:58:13;;;;;;;7.87;4.90;;;;;;;9.47;79.46;96543.75;4932643;29;20625;-83
2024/02/01 07:00:51;;;;;;;6.40;4.47;;;;;;;9.52;79.48;96533.03;4931917;29;20218;-84
2024/02/01 07:03:44;;;;;;;5.20;4.70;;;;;;;9.45;79.81;96537.94;4926123;29;20202;-85
2024/02/01 07:06:25;;;;;;;8.37;4.73;;;;;;;9.44;80.17;96543.22;4926181;29;20205;-83
2024/02/01 07:08:56;;;;;;;9.33;4.83;;;;;;;9.50;79.80;96540.09;4926639;29;20202;-84
2024/02/01 07:11:28;;;;;;;6.53;4.70;;;;;;;9.47;80.11;96546.34;4933546;29;20201;-85
2024/02/01 07:14:08;;;;;;;7.27;4.67;;;;;;;9.52;79.53;96533.03;4945028;29;20226;-83
2024/02/01 07:16:55;;;;;;;7.63;4.30;;;;;;;9.59;79.05;96531.50;4943664;29;20330;-84
2024/02/01 07:19:39;;;;;;;8.57;4.47;;;;;;;9.53;79.29;96525.19;4919378;29;20765;-83
2024/02/01 07:22:06;;;;;;;6.87;5.07;;;;;;;9.60;78.69;96515.13;4925627;29;20209;-84
2024/02/01 07:24:46;;;;;;;6.03;5.20;;;;;;;9.57;78.33;96507.72;4926225;29;20258;-84
2024/02/01 07:57:50;;;;;;;6.40;4.87;;;;;;;9.85;78.74;96586.38;4921842;29;20260;-84
2024/02/01 08:00:19;;;;;;;8.73;5.50;;;;;;;9.87;80.32;96632.53;4921201;29;20222;-85
2024/02/01 08:02:49;;;;;;;7.20;5.50;;;;;;;9.91;80.79;96636.44;4922207;29;20676;-84
2024/02/01 08:08:00;;;;;;;6.60;5.30;;;;;;;9.79;83.12;96694.22;4922307;29;20206;-84
2024/02/01 08:10:27;;;;;;;8.73;5.57;;;;;;;9.80;84.10;96722.34;4922599;29;20647;-85
2024/02/01 08:12:55;;;;;;;6.63;5.40;;;;;;;9.78;85.58;96751.75;4922308;29;20226;-83
2024/02/01 08:15:23;;;;;;;6.77;5.93;;;;;;;9.74;87.57;96774.34;4921044;29;20234;-85
2024/02/01 08:17:51;;;;;;;10.57;6.33;;;;;;;9.67;89.63;96806.72;4920407;29;20210;-83
2024/02/01 08:20:19;;;;;;;9.27;6.33;;;;;;;9.67;90.76;96824.72;4921534;29;20226;-84
2024/02/01 08:22:45;;;;;;;8.73;6.13;;;;;;;9.70;90.66;96821.88;4920886;29;20234;-85
2024/02/01 08:25:12;;;;;;;12.13;6.43;;;;;;;9.69;91.85;96843.41;4920583;29;20203;-85
2024/02/01 08:27:49;;;;;;;9.43;6.40;;;;;;;9.66;91.88;96841.09;4920887;29;20209;-85
2024/02/01 08:30:18;;;;;;;7.87;6.03;;;;;;;9.70;92.42;96857.88;4920738;29;20237;-84
2024/02/01 08:32:47;;;;;;;12.00;6.80;;;;;;;9.58;94.58;96882.97;4921246;29;20313;-85
2024/02/01 08:35:14;;;;;;;8.03;6.30;;;;;;;9.52;95.91;96898.94;4920675;29;20234;-84
2024/02/01 08:37:43;;;;;;;8.17;6.73;;;;;;;9.49;96.30;96914.63;4921293;29;20206;-84
2024/02/01 08:40:17;;;;;;;6.87;6.17;;;;;;;9.44;97.87;96933.97;4920006;29;20657;-85
2024/02/01 08:42:44;;;;;;;12.03;7.40;;;;;;;9.48;97.74;96931.00;4920557;29;20206;-84
2024/02/01 08:45:11;;;;;;;9.87;7.43;;;;;;;9.47;100.00;96956.84;4920608;29;20217;-84
2024/02/01 08:47:38;;;;;;;11.67;8.00;;;;;;;9.43;100.00;96947.78;4921411;29;20206;-83
2024/02/01 08:50:12;;;;;;;10.23;7.77;;;;;;;9.31;100.00;96954.81;4921437;29;20230;-83
2024/02/01 08:52:45;;;;;;;10.70;8.13;;;;;;;9.31;100.00;96952.25;4921003;29;20213;-85
2024/02/01 08:55:13;;;;;;;11.07;7.77;;;;;;;9.28;100.00;96961.03;4920938;29;20226;-85
2024/02/01 08:57:40;;;;;;;10.90;8.50;;;;;;;9.26;100.00;96980.09;4920591;29;20202;-84
2024/02/01 09:00:21;;;;;;;13.70;8.73;;;;;;;9.24;100.00;96987.13;4919364;29;20258;-85
2024/02/01 09:03:02;;;;;;;9.10;7.73;;;;;;;9.21;100.00;96993.38;4921005;29;20588;-84
2024/02/01 09:05:31;;;;;;;11.67;7.70;;;;;;;9.19;100.00;96984.97;4920468;29;20672;-84
2024/02/01 09:07:58;;;;;;;11.57;8.80;;;;;;;9.20;100.00;96978.91;4919985;29;20210;-84
2024/02/01 09:10:25;;;;;;;8.20;7.40;;;;;;;9.23;100.00;96967.53;4920065;29;20930;-84
2024/02/01 09:12:51;;;;;;;9.50;7.63;;;;;;;9.23;100.00;96965.78;4922429;29;20229;-83
2024/02/01 09:15:17;;;;;;;8.73;6.70;;;;;;;9.20;100.00;96948.06;4919783;29;20210;-84
2024/02/01 09:17:46;;;;;;;6.73;6.03;;;;;;;9.30;100.00;96989.16;4918359;29;20203;-84
2024/02/01 09:20:18;;;;;;;10.63;6.80;;;;;;;9.27;100.00;96964.53;4919744;29;20226;-85
2024/02/01 09:22:48;;;;;;;9.87;7.23;;;;;;;9.26;100.00;96951.81;4919512;29;20293;-83
2024/02/01 09:25:15;;;;;;;10.43;7.30;;;;;;;9.23;100.00;96958.06;4919618;29;20212;-85
2024/02/01 09:27:44;;;;;;;9.23;7.27;;;;;;;9.28;100.00;96958.47;4920457;29;20210;-84
2024/02/01 09:30:11;;;;;;;9.07;6.70;;;;;;;9.31;100.00;96965.09;4920294;29;20649;-85
2024/02/01 09:32:37;;;;;;;11.27;7.27;;;;;;;9.31;100.00;96949.66;4919871;29;20648;-84
2024/02/01 09:35:04;;;;;;;10.80;7.37;;;;;;;9.28;100.00;96950.75;4920002;29;20210;-85
2024/02/01 09:37:31;;;;;;;10.27;7.57;;;;;;;9.27;100.00;96964.53;4920333;29;20244;-84
2024/02/01 09:40:00;;;;;;;7.93;6.77;;;;;;;9.14;100.00;96948.59;4920578;29;20222;-84
2024/02/01 09:42:27;;;;;;;8.50;7.00;;;;;;;9.11;100.00;96955.75;4920201;29;20217;-84
2024/02/01 09:44:58;;;;;;;10.30;6.70;;;;;;;9.14;100.00;96973.47;4918790;29;20761;-83
2024/02/01 09:47:25;;;;;;;7.63;6.10;;;;;;;9.15;100.00;96965.63;4918870;29;20700;-85
2024/02/01 09:49:54;;;;;;;7.00;6.17;;;;;;;9.12;100.00;96960.75;4918944;29;20660;-84
2024/02/01 09:52:21;;;;;;;9.37;6.03;;;;;;;9.08;100.00;96950.88;4918733;29;20396;-84
2024/02/01 09:54:47;;;;;;;10.40;6.40;;;;;;;9.07;100.00;96957.75;4918154;29;20755;-85
2024/02/01 09:57:17;;;;;;;7.07;5.97;;;;;;;9.12;100.00;96957.38;4917606;29;20217;-85
2024/02/01 09:59:43;;;;;;;7.40;5.57;;;;;;;9.12;100.00;96954.78;4917710;29;20319;-85
2024/02/01 10:02:11;;;;;;;8.40;5.63;;;;;;;9.11;100.00;96960.88;4918314;29;20230;-84
2024/02/01 10:04:39;;;;;;;8.07;5.80;;;;;;;9.10;100.00;96960.06;4920569;29;20214;-84
2024/02/01 10:07:05;;;;;;;6.17;5.57;;;;;;;9.07;100.00;96949.25;4918734;29;20278;-85
2024/02/01 10:09:32;;;;;;;9.53;6.30;;;;;;;9.13;100.00;96952.09;4917040;29;20229;-85
2024/02/01 10:11:59;;;;;;;8.37;6.20;;;;;;;9.13;100.00;96956.41;4927504;29;20202;-85
2024/02/01 10:14:34;;;;;;;8.53;6.07;;;;;;;9.03;100.00;96950.47;4935238;29;20236;-84
2024/02/01 10:17:02;;;;;;;7.33;6.20;;;;;;;9.07;100.00;96969.78;4935561;29;20239;-84
2024/02/01 10:19:29;;;;;;;6.80;6.10;;;;;;;9.04;100.00;96970.09;4897702;29;20227;-84
2024/02/01 10:22:05;;;;;;;7.30;6.40;;;;;;;9.03;100.00;96971.84;4897170;29;20221;-84
2024/02/01 10:24:44;;;;;;;9.17;6.50;;;;;;;8.99;100.00;96971.28;4896970;29;20211;-83
2024/02/01 10:27:11;;;;;;;7.43;6.37;;;;;;;9.09;100.00;96975.63;4896667;29;20270;-84
2024/02/01 10:29:40;;;;;;;7.10;5.83;;;;;;;9.09;100.00;96968.72;4897207;29;20305;-83
2024/02/01 10:32:13;;;;;;;7.33;6.37;;;;;;;9.08;100.00;96972.22;4896939;29;20218;-83
2024/02/01 10:34:44;;;;;;;8.90;6.57;;;;;;;9.08;100.00;96977.38;4897200;29;20269;-85
2024/02/01 10:37:17;;;;;;;8.80;6.70;;;;;;;8.98;100.00;96984.25;4897416;29;20214;-85
2024/02/01 10:39:50;;;;;;;8.57;6.70;;;;;;;8.95;100.00;96993.03;4896013;29;20229;-84
2024/02/01 10:42:22;;;;;;;7.57;6.57;;;;;;;9.03;100.00;97004.44;4897384;29;20230;-84
2024/02/01 10:44:54;;;;;;;8.43;6.40;;;;;;;9.07;100.00;96992.91;4896952;29;20630;-83
2024/02/01 10:47:27;;;;;;;9.30;7.00;;;;;;;8.92;100.00;96988.16;4899375;29;20557;-85
2024/02/01 10:49:55;;;;;;;10.93;7.10;;;;;;;8.93;100.00;96982.06;4916775;29;20261;-84
2024/02/01 10:52:22;;;;;;;7.93;6.53;;;;;;;8.91;100.00;96991.66;4916574;29;20269;-83
2024/02/01 10:54:49;;;;;;;7.10;6.27;;;;;;;9.01;100.00;96991.72;4915508;29;20226;-84
2024/02/01 10:57:16;;;;;;;7.97;6.90;;;;;;;9.05;100.00;96981.94;4915793;29;20688;-85
2024/02/01 10:59:45;;;;;;;10.63;7.07;;;;;;;9.10;100.00;96987.53;4915274;29;20238;-83
2024/02/01 11:02:15;;;;;;;8.30;7.37;;;;;;;9.15;100.00;96978.47;4915357;29;20235;-83
2024/02/01 11:04:45;;;;;;;8.33;6.13;;;;;;;9.15;100.00;96985.38;4916102;29;20210;-84
2024/02/01 11:07:19;;;;;;;9.70;6.40;;;;;;;9.09;100.00;96973.84;4919004;29;20304;-84
2024/02/01 11:09:45;;;;;;;7.70;6.67;;;;;;;9.13;100.00;96984.69;4920451;29;20229;-85
2024/02/01 11:12:13;;;;;;;8.43;6.83;;;;;;;9.18;100.00;96985.91;4931883;29;20205;-84
2024/02/01 11:14:40;;;;;;;8.03;6.23;;;;;;;9.21;100.00;96983.09;4927543;29;20602;-83
2024/02/01 11:17:09;;;;;;;9.23;6.87;;;;;;;9.26;100.00;96975.78;4918921;29;20206;-84
2024/02/01 11:19:37;;;;;;;7.27;6.57;;;;;;;9.23;100.00;96978.63;4919338;29;20225;-84
2024/02/01 11:22:04;;;;;;;7.83;6.20;;;;;;;9.16;100.00;96980.09;4919670;29;20237;-83
2024/02/01 11:24:32;;;;;;;8.53;6.13;;;;;;;9.18;100.00;96978.22;4920660;29;20206;-83
2024/02/01 11:27:03;;;;;;;10.60;6.50;;;;;;;9.20;100.00;96976.31;4919934;29;20217;-83
2024/02/01 11:29:35;;;;;;;9.07;6.47;;;;;;;9.18;100.00;96973.06;4919650;29;20234;-84
2024/02/01 11:32:05;;;;;;;7.93;6.43;;;;;;;9.13;100.00;96971.84;4919654;29;20587;-84
2024/02/01 11:34:33;;;;;;;8.37;6.30;;;;;;;9.08;100.00;96971.41;4919480;29;20659;-84
2024/02/01 11:37:02;;;;;;;7.10;5.87;;;;;;;9.05;100.00;96980.19;4919671;29;20624;-83
2024/02/01 11:39:28;;;;;;;7.13;5.93;;;;;;;9.03;100.00;96981.31;4918747;29;20233;-84
2024/02/01 11:41:57;;;;;;;8.47;5.83;;;;;;;9.05;100.00;96982.78;4919950;29;20206;-84
2024/02/01 11:44:24;;;;;;;7.20;5.77;;;;;;;9.10;100.00;96984.94;4919831;29;20201;-84
2024/02/01 11:46:52;;;;;;;7.83;5.60;;;;;;;9.09;100.00;96986.69;4919586;29;20256;-84
2024/02/01 11:49:20;;;;;;;8.40;5.90;;;;;;;9.03;100.00;96996.72;4918919;29;20266;-84
2024/02/01 11:52:13;;;;;;;7.73;5.67;;;;;;;8.99;100.00;96991.03;4918682;29;20205;-85
2024/02/01 11:54:45;;;;;;;7.33;5.20;;;;;;;8.94;100.00;96993.16;4916500;29;20309;-84
2024/02/01 11:57:13;;;;;;;6.27;4.77;;;;;;;8.83;100.00;96999.25;4918796;29;20241;-84
2024/02/01 11:59:40;;;;;;;7.40;5.30;;;;;;;8.87;100.00;97004.91;4918428;29;20226;-84
2024/02/01 12:02:08;;;;;;;7.20;5.20;;;;;;;8.93;100.00;97007.78;4919336;29;20206;-84
2024/02/01 12:04:36;;;;;;;6.83;5.23;;;;;;;8.87;100.00;97007.47;4921079;29;20607;-84
2024/02/01 12:07:05;;;;;;;7.60;5.50;;;;;;;8.90;100.00;97010.59;4918180;29;20688;-83
2024/02/01 12:09:32;;;;;;;5.30;4.80;;;;;;;8.93;100.00;97012.09;4918166;29;20230;-83
2024/02/01 12:12:00;;;;;;;5.83;5.23;;;;;;;8.91;100.00;97001.94;4917707;29;20721;-84
2024/02/01 12:14:33;;;;;;;6.70;5.70;;;;;;;8.95;100.00;97007.63;4917268;29;20275;-84
2024/02/01 12:17:01;;;;;;;6.63;5.23;;;;;;;8.93;100.00;97004.38;4918024;29;20260;-84